Time;durP1;ratioP1;P1;durP2;ratioP2;P2;SDS_P1;SDS_P2;PMS_P1;PMS_P2;Temp;Humidity;BMP_temperature;BMP_pressure;BME280_temperature;BME280_humidity;BME280_pressure;Samples;Min_cycle;Max_cycle;Signal;HPM_P1;HPM_P2
2022/05/27 00:03:16;;;;;;;4.12;1.02;;;15.30;99.90;;;;;;7290872;32;20116;-58
2022/05/27 00:07:17;;;;;;;5.03;1.00;;;15.30;99.90;;;;;;7244393;32;20146;-60
2022/05/27 00:11:22;;;;;;;2.70;1.10;;;15.30;99.90;;;;;;7237695;32;20153;-59
2022/05/27 00:15:24;;;;;;;3.40;1.52;;;15.20;99.90;;;;;;7233750;32;20271;-59
2022/05/27 00:19:25;;;;;;;2.78;1.00;;;15.30;99.90;;;;;;7238433;32;20140;-59
2022/05/27 00:23:27;;;;;;;3.87;1.10;;;15.30;99.90;;;;;;7240287;32;20155;-59
2022/05/27 00:27:29;;;;;;;2.78;1.27;;;15.30;99.90;;;;;;7231651;32;20163;-59
2022/05/27 00:31:32;;;;;;;3.80;1.20;;;15.30;99.90;;;;;;7239739;32;20227;-58
2022/05/27 00:35:34;;;;;;;3.03;1.10;;;15.20;99.90;;;;;;7236210;32;20254;-59
2022/05/27 00:39:38;;;;;;;5.37;1.60;;;15.20;99.90;;;;;;7237852;32;20139;-58
2022/05/27 00:43:42;;;;;;;4.78;1.60;;;15.20;99.90;;;;;;7234744;32;20680;-59
2022/05/27 00:47:45;;;;;;;4.93;1.52;;;15.20;99.90;;;;;;7238011;32;20204;-59
2022/05/27 00:51:51;;;;;;;3.40;1.60;;;15.20;99.90;;;;;;7287926;32;20407;-60
2022/05/27 00:55:57;;;;;;;4.65;1.67;;;15.10;99.90;;;;;;7289348;32;20192;-59
2022/05/27 01:00:08;;;;;;;5.20;1.95;;;15.10;99.90;;;;;;7283953;32;20223;-59
2022/05/27 01:04:10;;;;;;;4.57;1.83;;;15.10;99.90;;;;;;7350401;32;20137;-59
2022/05/27 01:08:16;;;;;;;4.25;1.45;;;15.00;99.90;;;;;;7346830;32;20117;-59
2022/05/27 01:12:36;;;;;;;3.78;1.60;;;15.00;99.90;;;;;;7358228;32;20135;-59
2022/05/27 01:16:57;;;;;;;4.37;1.37;;;15.00;99.90;;;;;;7363443;32;20542;-58
2022/05/27 01:21:05;;;;;;;3.80;1.73;;;15.00;99.90;;;;;;7364942;32;20178;-59
2022/05/27 01:25:25;;;;;;;5.75;1.70;;;15.00;99.90;;;;;;7367577;32;20252;-59
2022/05/27 01:30:06;;;;;;;2.97;1.50;;;15.10;99.90;;;;;;7351174;32;20103;-59
2022/05/27 01:34:29;;;;;;;4.53;1.85;;;15.00;99.90;;;;;;7363311;32;20214;-59
2022/05/27 01:39:02;;;;;;;3.30;1.45;;;15.00;99.90;;;;;;7361871;32;20764;-58
2022/05/27 01:43:15;;;;;;;2.95;1.40;;;14.90;99.90;;;;;;7359458;32;20216;-58
2022/05/27 01:47:32;;;;;;;5.47;1.45;;;14.80;99.90;;;;;;7363401;32;20164;-58
2022/05/27 01:51:48;;;;;;;6.03;1.70;;;14.70;99.90;;;;;;7356304;32;20378;-59
2022/05/27 01:56:03;;;;;;;6.85;2.10;;;14.70;99.90;;;;;;7355633;32;20210;-58
2022/05/27 02:00:11;;;;;;;4.55;1.10;;;14.70;99.90;;;;;;7360729;32;20298;-59
2022/05/27 02:04:41;;;;;;;3.85;1.37;;;14.70;99.90;;;;;;7361462;32;20133;-58
2022/05/27 02:08:52;;;;;;;4.40;1.33;;;14.70;99.90;;;;;;7357437;32;20107;-58
2022/05/27 02:12:59;;;;;;;3.25;1.23;;;14.70;99.90;;;;;;7357675;32;20347;-58
2022/05/27 02:17:04;;;;;;;;;;;14.60;99.90;;;;;;7358106;32;20115;-58
2022/05/27 02:21:31;;;;;;;4.55;1.52;;;14.60;99.90;;;;;;7359775;32;20411;-59
2022/05/27 02:25:37;;;;;;;5.62;1.75;;;14.60;99.90;;;;;;7363411;32;20229;-59
2022/05/27 02:29:43;;;;;;;8.03;1.73;;;14.60;99.90;;;;;;7360370;32;20107;-59
2022/05/27 02:38:09;;;;;;;7.45;1.80;;;14.50;99.90;;;;;;7358415;32;20147;-58
2022/05/27 02:42:22;;;;;;;5.55;1.85;;;14.50;99.90;;;;;;7349179;32;20114;-59
2022/05/27 02:46:56;;;;;;;5.55;1.70;;;14.50;99.90;;;;;;7361614;32;20194;-59
2022/05/27 02:51:00;;;;;;;4.78;1.87;;;14.40;99.90;;;;;;7361477;32;20167;-58
2022/05/27 02:55:02;;;;;;;8.88;2.28;;;14.30;99.90;;;;;;7367168;32;20134;-59
2022/05/27 02:59:05;;;;;;;7.57;2.40;;;14.20;99.90;;;;;;7362918;32;20130;-59
2022/05/27 03:03:06;;;;;;;5.60;2.20;;;14.20;99.90;;;;;;7366796;32;20213;-59
2022/05/27 03:07:18;;;;;;;5.07;2.10;;;14.10;99.90;;;;;;7362870;32;20214;-59
2022/05/27 03:11:32;;;;;;;6.85;1.92;;;14.00;99.90;;;;;;7367532;32;20515;-59
2022/05/27 03:15:57;;;;;;;5.60;2.45;;;13.90;99.90;;;;;;7362448;32;20114;-58
2022/05/27 03:20:43;;;;;;;7.00;2.97;;;13.80;99.90;;;;;;7352246;32;20111;-59
2022/05/27 03:24:47;;;;;;;6.40;2.62;;;13.70;99.90;;;;;;7368191;32;20198;-59
2022/05/27 03:28:57;;;;;;;7.05;2.97;;;13.60;99.90;;;;;;7368880;32;20565;-59
2022/05/27 03:33:19;;;;;;;7.43;3.83;;;13.50;99.90;;;;;;7362868;32;20125;-60
2022/05/27 03:37:30;;;;;;;7.00;3.67;;;13.40;99.90;;;;;;7364542;32;20170;-58
2022/05/27 03:42:04;;;;;;;5.95;3.80;;;13.40;99.90;;;;;;7349184;32;20154;-58
2022/05/27 03:46:05;;;;;;;5.28;3.70;;;13.30;99.90;;;;;;7356767;32;20134;-58
2022/05/27 03:50:11;;;;;;;6.53;4.45;;;13.30;99.90;;;;;;7360398;32;20132;-58
2022/05/27 03:54:14;;;;;;;9.15;4.40;;;13.30;99.90;;;;;;7346135;32;20135;-60
2022/05/27 03:58:17;;;;;;;5.95;4.62;;;13.20;99.90;;;;;;7360605;32;20387;-59
2022/05/27 04:02:18;;;;;;;8.98;4.45;;;13.20;99.90;;;;;;7363934;32;20150;-59
2022/05/27 04:06:20;;;;;;;6.78;4.62;;;13.20;99.90;;;;;;7357692;32;20236;-58
2022/05/27 04:10:22;;;;;;;9.02;5.22;;;13.20;99.90;;;;;;7363090;32;20737;-58
2022/05/27 04:14:24;;;;;;;7.53;4.60;;;13.20;99.90;;;;;;7364764;32;20439;-59
2022/05/27 04:18:26;;;;;;;6.43;3.28;;;13.20;99.90;;;;;;7351626;32;20202;-58
2022/05/27 04:22:28;;;;;;;3.75;2.95;;;13.10;99.90;;;;;;7349702;32;20110;-59
2022/05/27 04:26:29;;;;;;;6.53;3.17;;;13.00;99.90;;;;;;7362109;32;20111;-59
2022/05/27 04:30:31;;;;;;;6.18;4.15;;;13.00;99.90;;;;;;7363864;32;20133;-59
2022/05/27 04:34:33;;;;;;;6.15;4.18;;;13.00;99.90;;;;;;7360241;32;20222;-59
2022/05/27 04:38:36;;;;;;;5.65;3.20;;;12.90;99.90;;;;;;7361098;32;20252;-59
2022/05/27 04:42:38;;;;;;;5.22;3.08;;;12.90;99.90;;;;;;7349786;32;20130;-59
2022/05/27 04:46:40;;;;;;;4.55;2.45;;;12.80;99.90;;;;;;7364681;32;20183;-61
2022/05/27 04:50:41;;;;;;;3.35;2.58;;;12.90;99.90;;;;;;7361612;32;20501;-62
2022/05/27 04:54:43;;;;;;;4.10;2.78;;;12.90;99.90;;;;;;7361059;32;20161;-63
2022/05/27 04:58:45;;;;;;;3.83;2.55;;;12.80;99.90;;;;;;7365106;32;20217;-62
2022/05/27 05:02:47;;;;;;;6.37;2.60;;;12.90;99.90;;;;;;7356585;32;20238;-63
2022/05/27 05:06:49;;;;;;;4.00;2.22;;;13.00;99.90;;;;;;7364590;32;20111;-63
2022/05/27 05:10:51;;;;;;;5.60;2.62;;;12.90;99.90;;;;;;7358711;32;20276;-63
2022/05/27 05:14:53;;;;;;;4.90;2.42;;;12.90;99.90;;;;;;7350508;32;20378;-61
2022/05/27 05:18:56;;;;;;;4.60;3.00;;;12.90;99.90;;;;;;7367087;32;20604;-61
2022/05/27 05:22:58;;;;;;;5.78;3.35;;;12.90;99.90;;;;;;7366096;32;20115;-62
2022/05/27 05:27:00;;;;;;;3.87;2.60;;;12.90;99.90;;;;;;7361879;32;20242;-61
2022/05/27 05:31:02;;;;;;;5.20;2.60;;;12.90;99.90;;;;;;7361419;32;20180;-61
2022/05/27 05:35:04;;;;;;;7.95;2.58;;;13.00;99.90;;;;;;7356953;32;20213;-61
2022/05/27 05:39:06;;;;;;;5.28;2.78;;;12.90;99.90;;;;;;7355076;32;20227;-63
2022/05/27 05:43:07;;;;;;;4.03;2.28;;;13.00;99.90;;;;;;7356126;32;20128;-62
2022/05/27 05:47:09;;;;;;;4.05;2.40;;;13.00;99.90;;;;;;7354897;32;20290;-62
2022/05/27 05:51:11;;;;;;;5.00;2.60;;;13.00;99.90;;;;;;7362090;32;20608;-63
2022/05/27 05:55:15;;;;;;;5.18;1.92;;;13.00;99.90;;;;;;7358825;32;20534;-62
2022/05/27 05:59:19;;;;;;;8.32;2.17;;;13.00;99.90;;;;;;7357181;32;20111;-63
2022/05/27 06:03:20;;;;;;;4.30;2.40;;;13.00;99.90;;;;;;7257741;32;20182;-63
2022/05/27 06:07:22;;;;;;;3.10;2.17;;;13.00;99.90;;;;;;7219963;32;20526;-63
2022/05/27 06:11:24;;;;;;;5.70;2.05;;;13.00;99.90;;;;;;7209586;32;20128;-63
2022/05/27 06:15:26;;;;;;;4.18;2.28;;;13.00;99.90;;;;;;7242019;32;20136;-62
2022/05/27 06:19:28;;;;;;;3.85;1.80;;;13.00;99.90;;;;;;7231359;32;20135;-63
2022/05/27 06:23:29;;;;;;;6.47;2.33;;;13.00;99.90;;;;;;7207089;32;20339;-61
2022/05/27 06:27:32;;;;;;;8.15;2.08;;;13.10;99.90;;;;;;7207740;32;20531;-63
2022/05/27 06:35:55;;;;;;;8.30;2.25;;;13.20;99.90;;;;;;7214162;32;20112;-63
2022/05/27 06:39:57;;;;;;;5.30;2.72;;;13.30;99.90;;;;;;7214970;32;20496;-62
2022/05/27 06:44:00;;;;;;;6.12;2.22;;;13.40;99.90;;;;;;7211076;32;20559;-63
2022/05/27 06:48:06;;;;;;;6.75;2.72;;;13.40;99.90;;;;;;7208813;32;20135;-64
2022/05/27 06:52:08;;;;;;;7.87;2.60;;;13.40;99.90;;;;;;7209855;32;20220;-66
2022/05/27 06:56:09;;;;;;;6.60;2.12;;;13.50;99.90;;;;;;7248205;32;20156;-65
2022/05/27 07:00:12;;;;;;;5.95;2.50;;;13.50;99.90;;;;;;7231333;32;20495;-61
2022/05/27 07:04:14;;;;;;;11.23;2.72;;;13.60;99.90;;;;;;7356024;32;20146;-64
2022/05/27 07:08:16;;;;;;;6.40;2.50;;;13.60;99.90;;;;;;7359099;32;20556;-62
2022/05/27 07:12:18;;;;;;;7.72;2.45;;;13.60;99.90;;;;;;7368621;32;20453;-63
2022/05/27 07:16:20;;;;;;;6.55;2.30;;;13.80;99.90;;;;;;7364678;32;20115;-64
2022/05/27 07:20:23;;;;;;;4.85;2.28;;;13.90;99.90;;;;;;7373352;32;20146;-62
2022/05/27 07:24:28;;;;;;;8.35;3.12;;;13.90;99.90;;;;;;7372492;32;20748;-65
2022/05/27 07:28:30;;;;;;;7.90;2.62;;;13.90;99.90;;;;;;7372342;32;20218;-65
2022/05/27 07:32:36;;;;;;;9.45;2.70;;;14.00;99.90;;;;;;7361738;32;20521;-62
2022/05/27 07:36:38;;;;;;;6.87;2.60;;;13.90;99.90;;;;;;7361304;32;20142;-58
2022/05/27 07:40:40;;;;;;;9.73;2.85;;;14.00;99.90;;;;;;7367662;32;20111;-58
2022/05/27 07:44:41;;;;;;;6.90;2.70;;;14.20;99.90;;;;;;7365990;32;20111;-63
2022/05/27 07:48:44;;;;;;;9.20;3.30;;;14.30;99.90;;;;;;7372578;32;20115;-65
2022/05/27 07:52:46;;;;;;;5.95;3.12;;;14.50;99.90;;;;;;7359663;32;20232;-65
2022/05/27 07:56:49;;;;;;;7.53;3.97;;;14.70;99.90;;;;;;7364791;32;20106;-63
2022/05/27 08:00:50;;;;;;;8.52;4.37;;;14.90;99.90;;;;;;7366747;32;20451;-64
2022/05/27 08:04:53;;;;;;;8.75;4.35;;;14.80;99.90;;;;;;7373561;32;20184;-64
2022/05/27 08:08:55;;;;;;;9.38;4.30;;;14.80;99.90;;;;;;7358354;32;20363;-64
2022/05/27 08:12:57;;;;;;;10.55;4.50;;;15.30;99.90;;;;;;7361776;32;20795;-65
2022/05/27 08:17:00;;;;;;;8.07;4.00;;;15.50;99.90;;;;;;7358782;32;20115;-65
2022/05/27 08:21:01;;;;;;;8.30;4.00;;;15.70;99.90;;;;;;7368789;32;20754;-65
2022/05/27 08:25:04;;;;;;;9.57;4.32;;;16.20;99.90;;;;;;7369335;32;20107;-65
2022/05/27 08:29:07;;;;;;;8.93;3.80;;;16.70;99.90;;;;;;7362846;32;20222;-64
2022/05/27 08:33:09;;;;;;;7.25;3.37;;;16.80;99.90;;;;;;7365072;32;20119;-64
2022/05/27 08:41:44;;;;;;;7.12;3.10;;;17.00;99.90;;;;;;7358934;32;20128;-64
2022/05/27 08:46:03;;;;;;;9.82;2.85;;;16.90;99.90;;;;;;7355354;32;20223;-65
2022/05/27 08:50:30;;;;;;;6.93;2.90;;;16.90;99.90;;;;;;7369875;32;20317;-64
2022/05/27 08:54:49;;;;;;;9.38;2.95;;;16.70;99.90;;;;;;7361179;32;20319;-63
2022/05/27 08:59:30;;;;;;;10.05;2.60;;;16.90;99.90;;;;;;7360521;32;20738;-64
2022/05/27 09:03:37;;;;;;;8.82;2.65;;;17.50;99.90;;;;;;7357810;32;20724;-64
2022/05/27 09:08:02;;;;;;;8.05;2.15;;;18.00;99.90;;;;;;7353185;32;20231;-63
2022/05/27 09:12:23;;;;;;;8.07;2.55;;;17.40;99.90;;;;;;7356525;32;20712;-64
2022/05/27 09:16:31;;;;;;;9.57;2.33;;;16.80;99.90;;;;;;7353057;32;20206;-65
2022/05/27 09:20:51;;;;;;;6.62;2.62;;;16.70;99.90;;;;;;7372329;32;20263;-64
2022/05/27 09:25:20;;;;;;;10.63;2.67;;;17.20;99.90;;;;;;7355096;32;20134;-66
2022/05/27 09:29:29;;;;;;;10.90;2.80;;;18.40;99.90;;;;;;7344994;32;20099;-62
2022/05/27 09:33:32;;;;;;;15.50;3.05;;;18.20;99.90;;;;;;7361142;32;20260;-63
2022/05/27 09:37:39;;;;;;;12.70;3.28;;;18.10;99.90;;;;;;7362754;32;20613;-63
2022/05/27 09:41:58;;;;;;;9.80;2.45;;;18.20;99.90;;;;;;7360741;32;20374;-63
2022/05/27 09:46:03;;;;;;;9.88;2.80;;;18.80;99.90;;;;;;7358644;32;20161;-64
2022/05/27 09:50:07;;;;;;;8.65;2.10;;;19.00;99.90;;;;;;7365904;32;20241;-65
2022/05/27 09:54:18;;;;;;;10.45;2.22;;;18.60;99.90;;;;;;7369622;32;20147;-65
2022/05/27 09:58:26;;;;;;;7.37;2.08;;;18.00;99.90;;;;;;7346743;32;20169;-64
2022/05/27 10:02:36;;;;;;;8.25;2.25;;;17.90;99.90;;;;;;7360517;32;20644;-63
2022/05/27 10:06:38;;;;;;;10.25;2.22;;;18.20;99.90;;;;;;7351564;32;20136;-63
2022/05/27 10:10:42;;;;;;;9.43;2.55;;;18.80;99.90;;;;;;7358414;32;20111;-62
2022/05/27 10:14:51;;;;;;;9.63;2.10;;;18.60;99.90;;;;;;7365391;32;20122;-62
2022/05/27 10:19:21;;;;;;;7.93;2.50;;;18.40;99.90;;;;;;7363444;32;20116;-62
2022/05/27 10:23:26;;;;;;;9.23;2.50;;;18.50;99.90;;;;;;7366010;32;20207;-62
2022/05/27 10:27:35;;;;;;;8.85;2.12;;;18.40;99.90;;;;;;7352405;32;20675;-61
2022/05/27 10:31:47;;;;;;;8.77;2.55;;;18.10;99.90;;;;;;7362286;32;20220;-62
2022/05/27 10:35:51;;;;;;;6.07;1.90;;;18.30;99.90;;;;;;7355477;32;20149;-63
2022/05/27 10:40:12;;;;;;;12.80;2.67;;;19.00;99.90;;;;;;7357459;32;20760;-62
2022/05/27 10:44:34;;;;;;;10.90;3.35;;;19.80;99.90;;;;;;7353921;32;20207;-56
2022/05/27 10:48:51;;;;;;;9.63;2.72;;;20.20;99.90;;;;;;7321826;32;20174;-58
2022/05/27 10:53:31;;;;;;;12.10;2.95;;;19.90;99.90;;;;;;7359720;32;20127;-57
2022/05/27 11:02:19;;;;;;;10.55;2.53;;;19.70;99.90;;;;;;7359124;32;20153;-56
2022/05/27 11:06:47;;;;;;;8.88;2.28;;;20.60;99.90;;;;;;7358289;32;20170;-57
2022/05/27 11:11:24;;;;;;;;;;;20.20;99.90;;;;;;7349868;32;20215;-56
2022/05/27 11:15:48;;;;;;;8.48;2.50;;;19.80;99.90;;;;;;7282348;32;20133;-56
2022/05/27 11:20:11;;;;;;;8.95;2.28;;;19.50;99.90;;;;;;7361839;32;20237;-57
2022/05/27 11:24:35;;;;;;;7.85;2.03;;;19.70;99.90;;;;;;7364469;32;20115;-58
2022/05/27 11:29:06;;;;;;;10.02;2.33;;;19.50;99.90;;;;;;7365142;32;20103;-57
2022/05/27 11:33:37;;;;;;;12.05;2.37;;;19.40;99.90;;;;;;7364472;32;20099;-55
2022/05/27 11:37:51;;;;;;;4.30;1.58;;;19.50;99.90;;;;;;7351152;32;20129;-56
2022/05/27 11:42:26;;;;;;;8.23;2.03;;;19.80;99.90;;;;;;7368456;32;20253;-57
2022/05/27 11:46:40;;;;;;;9.00;2.15;;;19.90;99.90;;;;;;7349780;32;20115;-56
2022/05/27 11:51:00;;;;;;;11.40;2.90;;;19.10;99.90;;;;;;7346918;32;20111;-56
2022/05/27 11:55:26;;;;;;;10.85;2.58;;;18.80;99.90;;;;;;7361543;32;20127;-55
2022/05/27 11:59:36;;;;;;;9.07;2.47;;;19.10;99.90;;;;;;7360879;32;20107;-56
2022/05/27 12:04:06;;;;;;;16.17;3.33;;;19.30;99.90;;;;;;7357470;32;20167;-57
2022/05/27 12:08:30;;;;;;;13.70;2.47;;;18.90;99.90;;;;;;7348194;32;20210;-62
2022/05/27 12:12:37;;;;;;;7.00;1.98;;;18.80;99.90;;;;;;7362937;32;20129;-62
2022/05/27 12:16:39;;;;;;;10.18;1.58;;;19.10;99.90;;;;;;7354522;32;20239;-61
2022/05/27 12:20:41;;;;;;;5.05;1.65;;;19.00;99.90;;;;;;7367574;32;20160;-61
2022/05/27 12:24:48;;;;;;;6.43;2.10;;;18.70;99.90;;;;;;7357018;32;20392;-61
2022/05/27 12:28:50;;;;;;;6.72;1.98;;;18.60;99.90;;;;;;7360368;32;20107;-62
2022/05/27 12:32:53;;;;;;;7.50;1.80;;;18.40;99.90;;;;;;7365903;32;20125;-64
2022/05/27 12:37:14;;;;;;;8.18;2.22;;;18.90;99.90;;;;;;7368151;32;20133;-61
2022/05/27 12:41:31;;;;;;;11.07;2.30;;;19.30;99.90;;;;;;7348754;32;20190;-61
2022/05/27 12:45:47;;;;;;;6.53;1.60;;;19.10;99.90;;;;;;7357245;32;20243;-61
2022/05/27 12:49:59;;;;;;;14.73;3.22;;;19.30;97.40;;;;;;7356575;32;20130;-61
2022/05/27 12:54:01;;;;;;;5.87;1.65;;;19.80;95.80;;;;;;7356485;32;20154;-63
2022/05/27 13:02:23;;;;;;;7.82;1.83;;;18.90;97.20;;;;;;7367020;32;20115;-61
2022/05/27 13:06:25;;;;;;;10.48;2.12;;;19.10;95.90;;;;;;7369112;32;20115;-60
2022/05/27 13:10:26;;;;;;;7.07;1.55;;;19.10;96.30;;;;;;7344199;32;20605;-63
2022/05/27 13:14:45;;;;;;;8.98;2.00;;;19.20;92.50;;;;;;7360157;32;20281;-66
2022/05/27 13:18:59;;;;;;;7.00;1.75;;;19.40;94.50;;;;;;7354965;32;20228;-64
2022/05/27 13:23:04;;;;;;;5.03;1.45;;;19.40;93.90;;;;;;7358573;32;20121;-63
2022/05/27 13:27:24;;;;;;;11.40;1.50;;;19.60;91.00;;;;;;7354015;32;20490;-65
2022/05/27 13:31:40;;;;;;;10.20;2.15;;;19.50;92.00;;;;;;7334101;32;20120;-64
2022/05/27 13:35:46;;;;;;;10.55;2.20;;;19.60;94.70;;;;;;7357063;32;20542;-64
2022/05/27 13:40:03;;;;;;;10.35;2.12;;;19.20;92.40;;;;;;7369942;32;20209;-65
2022/05/27 13:44:06;;;;;;;6.90;1.87;;;18.60;95.30;;;;;;7334510;32;20111;-64
2022/05/27 13:48:14;;;;;;;8.48;1.80;;;18.50;91.30;;;;;;7357651;32;20146;-65
2022/05/27 13:52:25;;;;;;;8.15;1.92;;;18.20;94.30;;;;;;7360546;32;20110;-64
2022/05/27 13:56:34;;;;;;;11.93;1.98;;;18.40;95.50;;;;;;7363370;32;20885;-64
2022/05/27 14:00:43;;;;;;;9.88;2.30;;;18.10;94.50;;;;;;7367246;32;20194;-63
2022/05/27 14:04:46;;;;;;;10.20;2.90;;;17.60;95.30;;;;;;7351159;32;20099;-64
2022/05/27 14:08:48;;;;;;;8.68;1.77;;;17.90;95.80;;;;;;7357019;32;20186;-65
2022/05/27 14:12:49;;;;;;;8.80;1.80;;;17.80;93.70;;;;;;7363227;32;20496;-65
2022/05/27 14:16:51;;;;;;;6.82;1.50;;;17.70;94.00;;;;;;7355526;32;20153;-64
2022/05/27 14:25:38;;;;;;;5.68;1.30;;;18.00;92.40;;;;;;7285585;32;20100;-62
2022/05/27 14:29:40;;;;;;;6.07;1.50;;;18.50;93.90;;;;;;7370889;32;20095;-64
2022/05/27 14:33:50;;;;;;;10.25;1.95;;;18.80;92.60;;;;;;7358892;32;20102;-63
2022/05/27 14:37:58;;;;;;;7.03;1.83;;;18.60;91.50;;;;;;7358369;32;20108;-64
2022/05/27 14:42:01;;;;;;;6.78;1.40;;;18.80;91.20;;;;;;7352810;32;20121;-63
2022/05/27 14:46:20;;;;;;;6.85;1.80;;;18.60;87.90;;;;;;7372436;32;20102;-61
2022/05/27 14:50:23;;;;;;;5.35;1.40;;;18.30;90.00;;;;;;7355578;32;20111;-63
2022/05/27 14:54:28;;;;;;;6.78;1.27;;;18.00;91.30;;;;;;7358062;32;20129;-63
2022/05/27 14:58:35;;;;;;;10.35;1.40;;;18.10;90.20;;;;;;7354091;32;20126;-63
2022/05/27 15:02:40;;;;;;;7.30;1.60;;;18.30;88.00;;;;;;7359525;32;20099;-62
2022/05/27 15:06:45;;;;;;;6.35;1.65;;;17.90;90.30;;;;;;7363875;32;20640;-61
2022/05/27 15:11:08;;;;;;;8.30;1.87;;;17.70;92.40;;;;;;7365168;32;20099;-63
2022/05/27 15:15:11;;;;;;;5.97;1.60;;;17.80;90.10;;;;;;7372461;32;20103;-63
2022/05/27 15:19:17;;;;;;;7.85;2.05;;;17.80;92.40;;;;;;7376300;32;20606;-63
2022/05/27 15:23:27;;;;;;;7.28;1.67;;;17.80;93.30;;;;;;7371535;32;20103;-63
2022/05/27 15:36:35;;;;;;;8.18;2.00;;;18.20;95.90;;;;;;7368276;32;20141;-64
2022/05/27 15:40:39;;;;;;;12.18;1.73;;;18.00;92.40;;;;;;7355009;32;20217;-63
2022/05/27 15:44:41;;;;;;;15.23;2.50;;;17.90;94.00;;;;;;7363379;32;20147;-61
2022/05/27 15:48:43;;;;;;;15.02;2.00;;;18.00;94.90;;;;;;7366543;32;20174;-61
2022/05/27 15:52:45;;;;;;;11.93;1.77;;;18.10;94.50;;;;;;7372849;32;20152;-61
2022/05/27 15:56:47;;;;;;;17.37;5.15;;;17.90;94.30;;;;;;7376284;32;20218;-61
2022/05/27 16:00:50;;;;;;;8.57;1.73;;;17.90;92.90;;;;;;7375993;32;20476;-63
2022/05/27 16:04:52;;;;;;;11.20;2.15;;;17.90;93.80;;;;;;7376672;32;20431;-61
2022/05/27 16:08:54;;;;;;;8.13;2.10;;;17.80;91.80;;;;;;7363766;32;20123;-61
2022/05/27 16:12:56;;;;;;;8.15;1.58;;;17.70;92.30;;;;;;7368289;32;20752;-62
2022/05/27 16:21:18;;;;;;;10.30;3.92;;;17.70;91.40;;;;;;7373410;32;20795;-62
2022/05/27 16:25:25;;;;;;;9.98;1.75;;;17.60;92.70;;;;;;7360837;32;20107;-62
2022/05/27 16:29:27;;;;;;;8.77;1.45;;;17.50;93.40;;;;;;7368689;32;20212;-62
2022/05/27 16:33:29;;;;;;;12.27;1.75;;;17.50;93.40;;;;;;7354690;32;20210;-63
2022/05/27 16:37:31;;;;;;;12.13;2.22;;;17.40;94.10;;;;;;7360084;32;20737;-61
2022/05/27 16:41:32;;;;;;;8.35;1.67;;;17.20;92.80;;;;;;7352878;32;20198;-60
2022/05/27 16:45:35;;;;;;;8.13;1.70;;;17.10;93.40;;;;;;7360255;32;20552;-61
2022/05/27 16:49:38;;;;;;;10.32;1.80;;;17.00;93.60;;;;;;7361040;32;20122;-63
2022/05/27 16:53:40;;;;;;;10.48;1.77;;;16.80;94.40;;;;;;7363792;32;20103;-61
2022/05/27 16:57:42;;;;;;;13.55;2.20;;;16.70;93.10;;;;;;7364453;32;20240;-63
2022/05/27 17:01:45;;;;;;;8.32;1.40;;;16.70;94.00;;;;;;7361883;32;20757;-63
2022/05/27 17:05:47;;;;;;;10.57;1.62;;;16.50;93.50;;;;;;7348136;32;20719;-65
2022/05/27 17:09:50;;;;;;;6.80;1.15;;;16.30;92.90;;;;;;7346843;32;20108;-64
2022/05/27 17:13:51;;;;;;;8.07;1.40;;;16.40;92.90;;;;;;7365442;32;20095;-65
2022/05/27 17:17:55;;;;;;;7.87;1.70;;;16.40;95.60;;;;;;7354201;32;20624;-63
2022/05/27 17:21:56;;;;;;;7.25;1.73;;;16.30;94.30;;;;;;7350769;32;20112;-63
2022/05/27 17:25:58;;;;;;;7.12;1.73;;;16.10;92.40;;;;;;7354396;32;20586;-64
2022/05/27 17:30:00;;;;;;;11.20;2.42;;;15.90;93.40;;;;;;7358700;32;20099;-58
2022/05/27 17:34:02;;;;;;;9.18;1.90;;;15.80;94.00;;;;;;7358168;32;20682;-62
2022/05/27 17:38:05;;;;;;;6.75;1.23;;;15.80;94.00;;;;;;7348011;32;20491;-62
2022/05/27 17:42:07;;;;;;;8.68;1.48;;;15.80;95.00;;;;;;7345887;32;20447;-66
2022/05/27 17:46:12;;;;;;;7.12;1.30;;;15.60;94.50;;;;;;7363274;32;20163;-64
2022/05/27 17:54:35;;;;;;;8.57;1.60;;;15.10;96.60;;;;;;7356831;32;20107;-63
2022/05/27 17:58:37;;;;;;;6.07;1.58;;;15.00;96.80;;;;;;7358121;32;20188;-62
2022/05/27 18:02:38;;;;;;;6.87;1.40;;;15.00;95.30;;;;;;7353170;32;20179;-63
2022/05/27 18:06:41;;;;;;;10.10;1.85;;;15.00;97.70;;;;;;7354181;32;20134;-63
2022/05/27 18:10:43;;;;;;;19.40;3.65;;;15.00;97.20;;;;;;7365039;32;20191;-63
2022/05/27 18:14:45;;;;;;;8.82;1.50;;;15.00;97.50;;;;;;7354931;32;20126;-63
2022/05/27 18:18:47;;;;;;;7.40;1.62;;;14.90;99.70;;;;;;7356785;32;20792;-61
2022/05/27 18:22:49;;;;;;;10.00;1.77;;;15.00;98.40;;;;;;7355404;32;20099;-61
2022/05/27 18:26:50;;;;;;;12.05;1.60;;;15.00;99.40;;;;;;7373038;32;20500;-63
2022/05/27 18:30:52;;;;;;;10.68;1.85;;;15.00;99.90;;;;;;7372185;32;20125;-63
2022/05/27 18:34:54;;;;;;;9.73;1.80;;;14.90;99.10;;;;;;7365325;32;20116;-64
2022/05/27 18:38:56;;;;;;;7.55;1.17;;;14.70;99.40;;;;;;7349579;32;20180;-63
2022/05/27 18:42:57;;;;;;;9.10;1.50;;;14.60;99.90;;;;;;7349659;32;20190;-64
2022/05/27 18:46:59;;;;;;;9.68;1.48;;;14.50;99.90;;;;;;7370570;32;20254;-62
2022/05/27 18:51:01;;;;;;;10.60;1.37;;;14.40;99.90;;;;;;7360128;32;20286;-63
2022/05/27 18:55:05;;;;;;;8.45;1.20;;;14.30;99.90;;;;;;7366555;32;20104;-65
2022/05/27 18:59:06;;;;;;;10.43;1.58;;;14.30;99.90;;;;;;7370713;32;20300;-64
2022/05/27 19:03:08;;;;;;;6.28;1.10;;;14.30;99.90;;;;;;7351796;32;20221;-65
2022/05/27 19:07:11;;;;;;;6.32;1.42;;;14.30;99.90;;;;;;7347966;32;20202;-64
2022/05/27 19:11:13;;;;;;;10.20;1.45;;;14.10;99.90;;;;;;7342634;32;20183;-63
2022/05/27 19:15:17;;;;;;;8.52;1.50;;;14.00;99.90;;;;;;7362028;32;20122;-65
2022/05/27 19:23:39;;;;;;;7.12;1.55;;;13.80;99.90;;;;;;7362083;32;20095;-65
2022/05/27 19:27:41;;;;;;;7.20;1.62;;;13.70;99.90;;;;;;7359447;32;20113;-63
2022/05/27 19:31:43;;;;;;;10.07;2.00;;;13.50;99.90;;;;;;7347681;32;21980;-65
2022/05/27 19:35:45;;;;;;;9.73;1.77;;;13.40;99.90;;;;;;7350774;32;20197;-62
2022/05/27 19:39:46;;;;;;;8.68;1.77;;;13.20;99.90;;;;;;7354165;32;20135;-63
2022/05/27 19:43:49;;;;;;;6.28;1.27;;;13.20;99.90;;;;;;7362029;32;20269;-63
2022/05/27 19:47:51;;;;;;;7.75;1.70;;;13.20;99.90;;;;;;7368270;32;20111;-61
2022/05/27 19:51:54;;;;;;;10.15;1.52;;;13.10;99.90;;;;;;7347418;32;20115;-60
2022/05/27 19:55:55;;;;;;;8.10;1.77;;;13.00;99.90;;;;;;7359083;32;20111;-60
2022/05/27 19:59:57;;;;;;;6.25;1.50;;;12.90;99.90;;;;;;7363764;32;20510;-60
2022/05/27 20:08:36;;;;;;;5.87;1.30;;;12.80;99.90;;;;;;7295910;32;20174;-60
2022/05/27 20:12:39;;;;;;;9.27;1.85;;;12.60;99.90;;;;;;7361695;32;20198;-61
2022/05/27 20:16:46;;;;;;;12.32;1.67;;;12.50;99.90;;;;;;7370420;32;20224;-61
2022/05/27 20:20:48;;;;;;;4.53;1.40;;;12.30;99.90;;;;;;7364077;32;20197;-61
2022/05/27 20:24:51;;;;;;;6.60;1.60;;;12.40;99.90;;;;;;7346069;32;20095;-61
2022/05/27 20:28:54;;;;;;;11.43;1.50;;;12.40;99.90;;;;;;7365336;32;20126;-60
2022/05/27 20:32:56;;;;;;;5.40;1.27;;;12.20;99.90;;;;;;7358122;32;20184;-60
2022/05/27 20:36:58;;;;;;;6.07;1.08;;;12.20;99.90;;;;;;7364043;32;20669;-60
2022/05/27 20:41:00;;;;;;;7.35;1.15;;;12.00;99.90;;;;;;7362094;32;20325;-60
2022/05/27 20:45:03;;;;;;;6.65;1.20;;;11.90;99.90;;;;;;7364807;32;20133;-60
2022/05/27 20:49:06;;;;;;;9.50;1.40;;;11.80;99.90;;;;;;7362246;32;20599;-59
2022/05/27 20:53:08;;;;;;;3.90;1.10;;;11.80;99.90;;;;;;7373665;32;20107;-60
2022/05/27 20:57:14;;;;;;;9.70;1.37;;;11.70;99.90;;;;;;7354613;32;20111;-60
2022/05/27 21:01:18;;;;;;;5.80;1.42;;;11.40;99.90;;;;;;7365193;32;20149;-60
2022/05/27 21:05:27;;;;;;;8.32;1.40;;;11.20;99.90;;;;;;7348760;32;20103;-60
2022/05/27 21:09:29;;;;;;;5.65;1.58;;;11.00;99.90;;;;;;7356308;32;20297;-60
2022/05/27 21:13:32;;;;;;;9.35;2.00;;;10.90;99.90;;;;;;7349295;32;20099;-59
2022/05/27 21:17:34;;;;;;;9.65;1.90;;;10.70;99.90;;;;;;7363190;32;20179;-60
2022/05/27 21:21:40;;;;;;;8.38;1.40;;;10.60;99.90;;;;;;7345660;32;20122;-60
2022/05/27 21:25:42;;;;;;;7.40;1.80;;;10.50;99.90;;;;;;7345547;32;20108;-60
2022/05/27 21:29:44;;;;;;;7.57;1.62;;;10.40;99.90;;;;;;7362425;32;20189;-60
2022/05/27 21:33:46;;;;;;;6.80;1.60;;;10.20;99.90;;;;;;7366178;32;20164;-59
2022/05/27 21:37:48;;;;;;;8.52;1.45;;;10.10;99.90;;;;;;7347943;32;20263;-59
2022/05/27 21:42:10;;;;;;;8.65;1.23;;;9.90;99.90;;;;;;7354698;32;20214;-60
2022/05/27 21:46:18;;;;;;;4.82;1.35;;;9.90;99.90;;;;;;7356444;32;20102;-60
2022/05/27 21:50:21;;;;;;;9.20;1.35;;;9.70;99.90;;;;;;7364699;32;20187;-60
2022/05/27 21:54:23;;;;;;;6.95;1.25;;;9.60;99.90;;;;;;7370360;32;20103;-60
2022/05/27 21:58:27;;;;;;;8.73;1.27;;;9.50;99.90;;;;;;7359262;32;20152;-59
2022/05/27 22:02:30;;;;;;;5.53;1.12;;;9.40;99.90;;;;;;7358614;32;20577;-59
2022/05/27 22:06:31;;;;;;;8.93;1.35;;;9.30;99.90;;;;;;7359842;32;20155;-60
2022/05/27 22:15:15;;;;;;;6.87;1.40;;;9.10;99.90;;;;;;7289415;32;20099;-59
2022/05/27 22:19:16;;;;;;;9.45;1.15;;;9.00;99.90;;;;;;7363774;32;20474;-58
2022/05/27 22:23:18;;;;;;;8.68;1.55;;;9.00;99.90;;;;;;7356962;32;20372;-60